sensor_id;sensor_type;location;lat;lon;timestamp;P1;durP1;ratioP1;P2;durP2;ratioP2
25936;SDS011;13733;51.178;4.450;2023-06-10T00:01:24;8.55;;;7.03;;
25936;SDS011;13733;51.178;4.450;2023-06-10T00:03:50;10.95;;;7.13;;
25936;SDS011;13733;51.178;4.450;2023-06-10T00:06:17;10.07;;;6.90;;
25936;SDS011;13733;51.178;4.450;2023-06-10T00:08:43;12.23;;;7.18;;
25936;SDS011;13733;51.178;4.450;2023-06-10T00:11:08;9.70;;;7.68;;
25936;SDS011;13733;51.178;4.450;2023-06-10T00:13:35;10.70;;;7.80;;
25936;SDS011;13733;51.178;4.450;2023-06-10T00:16:02;12.23;;;7.70;;
25936;SDS011;13733;51.178;4.450;2023-06-10T00:18:28;12.10;;;7.85;;
25936;SDS011;13733;51.178;4.450;2023-06-10T00:20:56;13.90;;;7.53;;
25936;SDS011;13733;51.178;4.450;2023-06-10T00:23:28;10.23;;;7.30;;
25936;SDS011;13733;51.178;4.450;2023-06-10T00:25:57;14.27;;;7.82;;
25936;SDS011;13733;51.178;4.450;2023-06-10T00:28:24;9.27;;;7.18;;
25936;SDS011;13733;51.178;4.450;2023-06-10T00:30:50;11.50;;;7.20;;
25936;SDS011;13733;51.178;4.450;2023-06-10T00:33:16;9.95;;;7.78;;
25936;SDS011;13733;51.178;4.450;2023-06-10T00:35:42;12.63;;;7.30;;
25936;SDS011;13733;51.178;4.450;2023-06-10T00:38:08;8.77;;;7.28;;
25936;SDS011;13733;51.178;4.450;2023-06-10T00:40:41;12.55;;;7.43;;
25936;SDS011;13733;51.178;4.450;2023-06-10T00:43:07;8.82;;;6.93;;
25936;SDS011;13733;51.178;4.450;2023-06-10T00:45:33;11.10;;;7.20;;
25936;SDS011;13733;51.178;4.450;2023-06-10T00:47:59;8.85;;;7.50;;
25936;SDS011;13733;51.178;4.450;2023-06-10T00:50:26;15.45;;;7.22;;
25936;SDS011;13733;51.178;4.450;2023-06-10T00:52:53;14.20;;;7.50;;
25936;SDS011;13733;51.178;4.450;2023-06-10T00:55:19;12.27;;;7.88;;
25936;SDS011;13733;51.178;4.450;2023-06-10T00:57:46;10.57;;;7.07;;
25936;SDS011;13733;51.178;4.450;2023-06-10T01:00:13;11.15;;;7.10;;
25936;SDS011;13733;51.178;4.450;2023-06-10T01:02:40;9.27;;;7.20;;
25936;SDS011;13733;51.178;4.450;2023-06-10T01:05:07;11.18;;;7.25;;
25936;SDS011;13733;51.178;4.450;2023-06-10T01:07:40;10.05;;;7.82;;
25936;SDS011;13733;51.178;4.450;2023-06-10T01:10:16;12.32;;;7.72;;
25936;SDS011;13733;51.178;4.450;2023-06-10T01:12:59;8.85;;;7.72;;
25936;SDS011;13733;51.178;4.450;2023-06-10T01:15:33;14.20;;;8.80;;
25936;SDS011;13733;51.178;4.450;2023-06-10T01:18:04;11.32;;;7.55;;
25936;SDS011;13733;51.178;4.450;2023-06-10T01:20:32;13.68;;;7.85;;
25936;SDS011;13733;51.178;4.450;2023-06-10T01:22:59;11.52;;;8.13;;
25936;SDS011;13733;51.178;4.450;2023-06-10T01:25:26;8.80;;;7.90;;
25936;SDS011;13733;51.178;4.450;2023-06-10T01:27:58;13.07;;;7.50;;
25936;SDS011;13733;51.178;4.450;2023-06-10T01:33:35;13.00;;;7.72;;
25936;SDS011;13733;51.178;4.450;2023-06-10T01:36:04;8.80;;;7.25;;
25936;SDS011;13733;51.178;4.450;2023-06-10T01:38:32;12.35;;;7.93;;
25936;SDS011;13733;51.178;4.450;2023-06-10T01:41:06;9.10;;;7.22;;
25936;SDS011;13733;51.178;4.450;2023-06-10T01:43:37;11.20;;;7.35;;
25936;SDS011;13733;51.178;4.450;2023-06-10T01:46:03;9.85;;;7.70;;
25936;SDS011;13733;51.178;4.450;2023-06-10T01:48:29;8.52;;;7.50;;
25936;SDS011;13733;51.178;4.450;2023-06-10T01:50:55;11.60;;;8.15;;
25936;SDS011;13733;51.178;4.450;2023-06-10T01:53:21;10.50;;;7.97;;
25936;SDS011;13733;51.178;4.450;2023-06-10T01:55:47;12.32;;;7.85;;
25936;SDS011;13733;51.178;4.450;2023-06-10T01:58:13;12.98;;;8.15;;
25936;SDS011;13733;51.178;4.450;2023-06-10T02:00:39;14.38;;;7.93;;
25936;SDS011;13733;51.178;4.450;2023-06-10T02:03:07;13.60;;;7.72;;
25936;SDS011;13733;51.178;4.450;2023-06-10T02:05:33;11.75;;;7.90;;
25936;SDS011;13733;51.178;4.450;2023-06-10T02:07:59;9.27;;;7.95;;
25936;SDS011;13733;51.178;4.450;2023-06-10T02:10:25;12.43;;;8.52;;
25936;SDS011;13733;51.178;4.450;2023-06-10T02:12:51;16.25;;;8.23;;
25936;SDS011;13733;51.178;4.450;2023-06-10T02:15:17;11.20;;;8.07;;
25936;SDS011;13733;51.178;4.450;2023-06-10T02:17:45;12.43;;;7.97;;
25936;SDS011;13733;51.178;4.450;2023-06-10T02:20:12;10.95;;;7.80;;
25936;SDS011;13733;51.178;4.450;2023-06-10T02:22:40;13.38;;;8.05;;
25936;SDS011;13733;51.178;4.450;2023-06-10T02:25:07;12.68;;;8.45;;
25936;SDS011;13733;51.178;4.450;2023-06-10T02:27:33;12.15;;;8.32;;
25936;SDS011;13733;51.178;4.450;2023-06-10T02:29:59;9.23;;;8.23;;
25936;SDS011;13733;51.178;4.450;2023-06-10T02:32:25;10.77;;;8.40;;
25936;SDS011;13733;51.178;4.450;2023-06-10T02:34:52;8.82;;;7.80;;
25936;SDS011;13733;51.178;4.450;2023-06-10T02:37:21;11.10;;;8.65;;
25936;SDS011;13733;51.178;4.450;2023-06-10T02:39:46;9.57;;;8.32;;
25936;SDS011;13733;51.178;4.450;2023-06-10T02:42:12;11.13;;;8.35;;
25936;SDS011;13733;51.178;4.450;2023-06-10T02:44:38;12.80;;;8.32;;
25936;SDS011;13733;51.178;4.450;2023-06-10T02:47:06;10.98;;;8.27;;
25936;SDS011;13733;51.178;4.450;2023-06-10T02:49:33;11.13;;;8.20;;
25936;SDS011;13733;51.178;4.450;2023-06-10T02:52:00;12.75;;;9.32;;
25936;SDS011;13733;51.178;4.450;2023-06-10T02:54:26;12.75;;;9.20;;
25936;SDS011;13733;51.178;4.450;2023-06-10T02:56:53;11.32;;;9.30;;
25936;SDS011;13733;51.178;4.450;2023-06-10T02:59:23;11.70;;;8.60;;
25936;SDS011;13733;51.178;4.450;2023-06-10T03:01:49;12.25;;;9.27;;
25936;SDS011;13733;51.178;4.450;2023-06-10T03:04:14;12.32;;;9.20;;
25936;SDS011;13733;51.178;4.450;2023-06-10T03:06:48;13.18;;;9.38;;
25936;SDS011;13733;51.178;4.450;2023-06-10T03:09:20;11.43;;;8.88;;
25936;SDS011;13733;51.178;4.450;2023-06-10T03:11:49;16.27;;;8.85;;
25936;SDS011;13733;51.178;4.450;2023-06-10T03:14:15;15.30;;;9.00;;
25936;SDS011;13733;51.178;4.450;2023-06-10T03:16:40;10.05;;;9.05;;
25936;SDS011;13733;51.178;4.450;2023-06-10T03:19:08;13.55;;;9.13;;
25936;SDS011;13733;51.178;4.450;2023-06-10T03:21:35;13.82;;;9.18;;
25936;SDS011;13733;51.178;4.450;2023-06-10T03:24:03;14.27;;;9.20;;
25936;SDS011;13733;51.178;4.450;2023-06-10T03:26:31;10.80;;;9.70;;
25936;SDS011;13733;51.178;4.450;2023-06-10T03:28:58;13.80;;;9.40;;
25936;SDS011;13733;51.178;4.450;2023-06-10T03:31:24;14.18;;;9.48;;
25936;SDS011;13733;51.178;4.450;2023-06-10T03:33:51;11.57;;;9.70;;
25936;SDS011;13733;51.178;4.450;2023-06-10T03:36:17;11.38;;;9.10;;
25936;SDS011;13733;51.178;4.450;2023-06-10T03:38:43;13.85;;;9.57;;
25936;SDS011;13733;51.178;4.450;2023-06-10T03:41:08;11.60;;;9.18;;
25936;SDS011;13733;51.178;4.450;2023-06-10T03:43:37;15.45;;;10.25;;
25936;SDS011;13733;51.178;4.450;2023-06-10T03:46:04;15.60;;;9.65;;
25936;SDS011;13733;51.178;4.450;2023-06-10T03:48:31;15.93;;;10.07;;
25936;SDS011;13733;51.178;4.450;2023-06-10T03:50:58;10.65;;;9.55;;
25936;SDS011;13733;51.178;4.450;2023-06-10T03:53:24;14.60;;;9.55;;
25936;SDS011;13733;51.178;4.450;2023-06-10T03:55:50;13.65;;;9.43;;
25936;SDS011;13733;51.178;4.450;2023-06-10T03:58:20;13.38;;;9.57;;
25936;SDS011;13733;51.178;4.450;2023-06-10T04:00:45;11.77;;;9.27;;
25936;SDS011;13733;51.178;4.450;2023-06-10T04:03:12;14.63;;;9.43;;
25936;SDS011;13733;51.178;4.450;2023-06-10T04:05:43;10.70;;;9.50;;
25936;SDS011;13733;51.178;4.450;2023-06-10T04:08:09;11.93;;;9.20;;
25936;SDS011;13733;51.178;4.450;2023-06-10T04:10:34;16.65;;;9.27;;
25936;SDS011;13733;51.178;4.450;2023-06-10T04:13:01;14.45;;;10.00;;
25936;SDS011;13733;51.178;4.450;2023-06-10T04:15:31;12.90;;;9.65;;
25936;SDS011;13733;51.178;4.450;2023-06-10T04:18:05;10.98;;;9.15;;
25936;SDS011;13733;51.178;4.450;2023-06-10T04:20:31;12.55;;;9.80;;
25936;SDS011;13733;51.178;4.450;2023-06-10T04:22:57;12.80;;;9.02;;
25936;SDS011;13733;51.178;4.450;2023-06-10T04:25:25;12.88;;;9.43;;
25936;SDS011;13733;51.178;4.450;2023-06-10T04:27:51;12.02;;;9.88;;
25936;SDS011;13733;51.178;4.450;2023-06-10T04:30:17;11.55;;;9.65;;
25936;SDS011;13733;51.178;4.450;2023-06-10T04:32:43;13.50;;;9.57;;
25936;SDS011;13733;51.178;4.450;2023-06-10T04:35:14;15.63;;;9.40;;
25936;SDS011;13733;51.178;4.450;2023-06-10T04:37:41;13.02;;;9.63;;
25936;SDS011;13733;51.178;4.450;2023-06-10T04:40:08;10.10;;;8.68;;
25936;SDS011;13733;51.178;4.450;2023-06-10T04:42:34;12.60;;;8.90;;
25936;SDS011;13733;51.178;4.450;2023-06-10T04:45:00;10.90;;;8.75;;
25936;SDS011;13733;51.178;4.450;2023-06-10T04:47:27;10.43;;;9.07;;
25936;SDS011;13733;51.178;4.450;2023-06-10T04:49:53;13.50;;;9.90;;
25936;SDS011;13733;51.178;4.450;2023-06-10T04:52:19;13.55;;;8.93;;
25936;SDS011;13733;51.178;4.450;2023-06-10T04:54:46;13.20;;;9.65;;
25936;SDS011;13733;51.178;4.450;2023-06-10T04:57:13;11.93;;;9.23;;
25936;SDS011;13733;51.178;4.450;2023-06-10T04:59:39;10.32;;;9.10;;
25936;SDS011;13733;51.178;4.450;2023-06-10T05:02:05;11.48;;;9.27;;
25936;SDS011;13733;51.178;4.450;2023-06-10T05:04:30;14.48;;;9.90;;
25936;SDS011;13733;51.178;4.450;2023-06-10T05:06:56;14.07;;;9.18;;
25936;SDS011;13733;51.178;4.450;2023-06-10T05:09:22;11.65;;;9.32;;
25936;SDS011;13733;51.178;4.450;2023-06-10T05:11:48;10.73;;;9.25;;
25936;SDS011;13733;51.178;4.450;2023-06-10T05:14:13;16.27;;;9.82;;
25936;SDS011;13733;51.178;4.450;2023-06-10T05:16:41;12.40;;;9.48;;
25936;SDS011;13733;51.178;4.450;2023-06-10T05:19:08;12.32;;;8.80;;
25936;SDS011;13733;51.178;4.450;2023-06-10T05:21:34;12.80;;;9.70;;
25936;SDS011;13733;51.178;4.450;2023-06-10T05:23:59;13.30;;;9.75;;
25936;SDS011;13733;51.178;4.450;2023-06-10T05:26:25;15.35;;;10.15;;
25936;SDS011;13733;51.178;4.450;2023-06-10T05:28:51;16.50;;;10.32;;
25936;SDS011;13733;51.178;4.450;2023-06-10T05:31:17;13.20;;;10.55;;
25936;SDS011;13733;51.178;4.450;2023-06-10T05:33:43;14.35;;;10.68;;
25936;SDS011;13733;51.178;4.450;2023-06-10T05:36:09;15.75;;;10.70;;
25936;SDS011;13733;51.178;4.450;2023-06-10T05:38:35;12.32;;;9.93;;
25936;SDS011;13733;51.178;4.450;2023-06-10T05:41:00;13.43;;;10.13;;
25936;SDS011;13733;51.178;4.450;2023-06-10T05:43:26;14.23;;;10.13;;
25936;SDS011;13733;51.178;4.450;2023-06-10T05:45:52;14.18;;;10.45;;
25936;SDS011;13733;51.178;4.450;2023-06-10T05:48:18;15.35;;;10.60;;
25936;SDS011;13733;51.178;4.450;2023-06-10T05:50:45;16.33;;;10.13;;
25936;SDS011;13733;51.178;4.450;2023-06-10T05:53:16;13.88;;;10.80;;
25936;SDS011;13733;51.178;4.450;2023-06-10T05:55:42;14.02;;;9.63;;
25936;SDS011;13733;51.178;4.450;2023-06-10T05:58:12;17.95;;;10.68;;
25936;SDS011;13733;51.178;4.450;2023-06-10T06:00:39;13.98;;;10.30;;
25936;SDS011;13733;51.178;4.450;2023-06-10T06:03:08;12.93;;;10.27;;
25936;SDS011;13733;51.178;4.450;2023-06-10T06:05:35;11.15;;;9.25;;
25936;SDS011;13733;51.178;4.450;2023-06-10T06:08:03;14.10;;;10.20;;
25936;SDS011;13733;51.178;4.450;2023-06-10T06:10:32;19.75;;;10.15;;
25936;SDS011;13733;51.178;4.450;2023-06-10T06:12:58;13.65;;;10.75;;
25936;SDS011;13733;51.178;4.450;2023-06-10T06:15:25;13.65;;;9.70;;
25936;SDS011;13733;51.178;4.450;2023-06-10T06:17:51;10.90;;;9.43;;
25936;SDS011;13733;51.178;4.450;2023-06-10T06:20:21;14.32;;;10.15;;
25936;SDS011;13733;51.178;4.450;2023-06-10T06:22:47;12.13;;;9.75;;
25936;SDS011;13733;51.178;4.450;2023-06-10T06:25:15;11.80;;;10.20;;
25936;SDS011;13733;51.178;4.450;2023-06-10T06:27:41;15.38;;;9.70;;
25936;SDS011;13733;51.178;4.450;2023-06-10T06:30:07;12.70;;;9.32;;
25936;SDS011;13733;51.178;4.450;2023-06-10T06:32:34;15.32;;;9.35;;
25936;SDS011;13733;51.178;4.450;2023-06-10T06:35:00;14.68;;;9.65;;
25936;SDS011;13733;51.178;4.450;2023-06-10T06:37:25;14.20;;;9.07;;
25936;SDS011;13733;51.178;4.450;2023-06-10T06:40:03;11.43;;;9.27;;
25936;SDS011;13733;51.178;4.450;2023-06-10T06:42:29;18.80;;;12.15;;
25936;SDS011;13733;51.178;4.450;2023-06-10T06:45:01;31.20;;;16.55;;
25936;SDS011;13733;51.178;4.450;2023-06-10T06:47:26;13.73;;;9.45;;
25936;SDS011;13733;51.178;4.450;2023-06-10T06:49:52;16.10;;;9.57;;
25936;SDS011;13733;51.178;4.450;2023-06-10T06:52:18;13.00;;;9.82;;
25936;SDS011;13733;51.178;4.450;2023-06-10T06:54:44;16.50;;;8.50;;
25936;SDS011;13733;51.178;4.450;2023-06-10T06:57:10;13.50;;;9.27;;
25936;SDS011;13733;51.178;4.450;2023-06-10T06:59:36;10.10;;;8.05;;
25936;SDS011;13733;51.178;4.450;2023-06-10T07:02:02;11.98;;;9.15;;
25936;SDS011;13733;51.178;4.450;2023-06-10T07:04:28;10.60;;;8.55;;
25936;SDS011;13733;51.178;4.450;2023-06-10T07:06:55;10.23;;;8.98;;
25936;SDS011;13733;51.178;4.450;2023-06-10T07:09:21;11.85;;;8.93;;
25936;SDS011;13733;51.178;4.450;2023-06-10T07:11:46;13.57;;;8.65;;
25936;SDS011;13733;51.178;4.450;2023-06-10T07:14:12;10.90;;;8.52;;
25936;SDS011;13733;51.178;4.450;2023-06-10T07:16:38;11.00;;;9.07;;
25936;SDS011;13733;51.178;4.450;2023-06-10T07:19:04;9.88;;;8.13;;
25936;SDS011;13733;51.178;4.450;2023-06-10T07:21:30;12.45;;;9.30;;
25936;SDS011;13733;51.178;4.450;2023-06-10T07:23:57;11.73;;;8.18;;
25936;SDS011;13733;51.178;4.450;2023-06-10T07:26:23;14.40;;;8.63;;
25936;SDS011;13733;51.178;4.450;2023-06-10T07:28:48;15.57;;;8.18;;
25936;SDS011;13733;51.178;4.450;2023-06-10T07:31:14;15.00;;;8.75;;
25936;SDS011;13733;51.178;4.450;2023-06-10T07:33:40;12.38;;;8.93;;
25936;SDS011;13733;51.178;4.450;2023-06-10T07:36:06;12.02;;;8.30;;
25936;SDS011;13733;51.178;4.450;2023-06-10T07:38:32;11.63;;;8.95;;
25936;SDS011;13733;51.178;4.450;2023-06-10T07:40:59;17.13;;;8.25;;
25936;SDS011;13733;51.178;4.450;2023-06-10T07:43:24;9.35;;;8.32;;
25936;SDS011;13733;51.178;4.450;2023-06-10T07:45:50;13.68;;;8.65;;
25936;SDS011;13733;51.178;4.450;2023-06-10T07:48:16;18.02;;;8.35;;
25936;SDS011;13733;51.178;4.450;2023-06-10T07:50:42;11.02;;;8.10;;
25936;SDS011;13733;51.178;4.450;2023-06-10T07:53:08;13.23;;;8.40;;
25936;SDS011;13733;51.178;4.450;2023-06-10T07:55:34;12.55;;;8.43;;
25936;SDS011;13733;51.178;4.450;2023-06-10T07:57:59;15.02;;;8.30;;
25936;SDS011;13733;51.178;4.450;2023-06-10T08:00:25;15.63;;;8.43;;
25936;SDS011;13733;51.178;4.450;2023-06-10T08:02:51;9.27;;;7.95;;
25936;SDS011;13733;51.178;4.450;2023-06-10T08:05:17;16.67;;;8.35;;
25936;SDS011;13733;51.178;4.450;2023-06-10T08:07:43;13.05;;;7.38;;
25936;SDS011;13733;51.178;4.450;2023-06-10T08:10:09;10.38;;;7.90;;
25936;SDS011;13733;51.178;4.450;2023-06-10T08:12:36;9.98;;;7.47;;
25936;SDS011;13733;51.178;4.450;2023-06-10T08:15:02;13.02;;;8.15;;
25936;SDS011;13733;51.178;4.450;2023-06-10T08:17:31;10.82;;;7.10;;
25936;SDS011;13733;51.178;4.450;2023-06-10T08:19:57;12.38;;;7.22;;
25936;SDS011;13733;51.178;4.450;2023-06-10T08:22:23;11.27;;;7.65;;
25936;SDS011;13733;51.178;4.450;2023-06-10T08:24:48;14.38;;;7.65;;
25936;SDS011;13733;51.178;4.450;2023-06-10T08:27:14;11.75;;;7.20;;
25936;SDS011;13733;51.178;4.450;2023-06-10T08:29:40;9.13;;;6.88;;
25936;SDS011;13733;51.178;4.450;2023-06-10T08:32:06;16.10;;;6.65;;
25936;SDS011;13733;51.178;4.450;2023-06-10T08:34:35;9.70;;;6.70;;
25936;SDS011;13733;51.178;4.450;2023-06-10T08:37:01;13.15;;;7.97;;
25936;SDS011;13733;51.178;4.450;2023-06-10T08:39:28;10.43;;;7.07;;
25936;SDS011;13733;51.178;4.450;2023-06-10T08:44:29;12.02;;;6.78;;
25936;SDS011;13733;51.178;4.450;2023-06-10T08:46:58;9.55;;;6.78;;
25936;SDS011;13733;51.178;4.450;2023-06-10T08:49:26;7.72;;;6.43;;
25936;SDS011;13733;51.178;4.450;2023-06-10T08:51:58;9.00;;;6.32;;
25936;SDS011;13733;51.178;4.450;2023-06-10T08:54:27;7.63;;;5.90;;
25936;SDS011;13733;51.178;4.450;2023-06-10T08:56:55;11.98;;;7.15;;
25936;SDS011;13733;51.178;4.450;2023-06-10T08:59:22;8.93;;;6.22;;
25936;SDS011;13733;51.178;4.450;2023-06-10T09:01:50;10.77;;;6.85;;
25936;SDS011;13733;51.178;4.450;2023-06-10T09:04:17;12.43;;;6.97;;
25936;SDS011;13733;51.178;4.450;2023-06-10T09:06:44;10.20;;;7.05;;
25936;SDS011;13733;51.178;4.450;2023-06-10T09:09:12;8.88;;;6.97;;
25936;SDS011;13733;51.178;4.450;2023-06-10T09:11:41;11.38;;;6.82;;
25936;SDS011;13733;51.178;4.450;2023-06-10T09:14:10;13.20;;;7.13;;
25936;SDS011;13733;51.178;4.450;2023-06-10T09:16:37;11.40;;;7.35;;
25936;SDS011;13733;51.178;4.450;2023-06-10T09:19:04;14.80;;;7.82;;
25936;SDS011;13733;51.178;4.450;2023-06-10T09:21:33;13.25;;;7.50;;
25936;SDS011;13733;51.178;4.450;2023-06-10T09:24:01;11.90;;;7.38;;
25936;SDS011;13733;51.178;4.450;2023-06-10T09:26:27;9.68;;;6.55;;
25936;SDS011;13733;51.178;4.450;2023-06-10T09:28:58;9.35;;;7.00;;
25936;SDS011;13733;51.178;4.450;2023-06-10T09:31:31;10.75;;;6.88;;
25936;SDS011;13733;51.178;4.450;2023-06-10T09:34:06;8.23;;;6.30;;
25936;SDS011;13733;51.178;4.450;2023-06-10T09:36:40;14.68;;;6.65;;
25936;SDS011;13733;51.178;4.450;2023-06-10T09:39:19;12.23;;;6.72;;
25936;SDS011;13733;51.178;4.450;2023-06-10T09:41:46;14.57;;;6.85;;
25936;SDS011;13733;51.178;4.450;2023-06-10T09:44:15;11.85;;;6.63;;
25936;SDS011;13733;51.178;4.450;2023-06-10T09:46:42;12.57;;;7.13;;
25936;SDS011;13733;51.178;4.450;2023-06-10T09:49:11;7.97;;;6.72;;
25936;SDS011;13733;51.178;4.450;2023-06-10T09:51:37;12.05;;;6.72;;
25936;SDS011;13733;51.178;4.450;2023-06-10T09:54:03;13.18;;;6.43;;
25936;SDS011;13733;51.178;4.450;2023-06-10T09:56:32;8.32;;;6.45;;
25936;SDS011;13733;51.178;4.450;2023-06-10T09:59:02;9.25;;;6.97;;
25936;SDS011;13733;51.178;4.450;2023-06-10T10:01:30;13.70;;;6.38;;
25936;SDS011;13733;51.178;4.450;2023-06-10T10:03:57;6.78;;;5.93;;
25936;SDS011;13733;51.178;4.450;2023-06-10T10:06:23;10.10;;;6.60;;
25936;SDS011;13733;51.178;4.450;2023-06-10T10:08:49;13.68;;;6.55;;
25936;SDS011;13733;51.178;4.450;2023-06-10T10:11:20;9.63;;;6.38;;
25936;SDS011;13733;51.178;4.450;2023-06-10T10:13:48;10.75;;;6.38;;
25936;SDS011;13733;51.178;4.450;2023-06-10T10:16:15;8.63;;;6.60;;
25936;SDS011;13733;51.178;4.450;2023-06-10T10:18:47;9.23;;;6.18;;
25936;SDS011;13733;51.178;4.450;2023-06-10T10:21:19;7.65;;;6.10;;
25936;SDS011;13733;51.178;4.450;2023-06-10T10:26:47;10.48;;;5.57;;
25936;SDS011;13733;51.178;4.450;2023-06-10T10:29:24;9.07;;;5.90;;
25936;SDS011;13733;51.178;4.450;2023-06-10T10:31:56;7.47;;;5.47;;
25936;SDS011;13733;51.178;4.450;2023-06-10T10:34:48;9.57;;;5.68;;
25936;SDS011;13733;51.178;4.450;2023-06-10T10:37:19;12.65;;;5.75;;
25936;SDS011;13733;51.178;4.450;2023-06-10T10:39:46;9.75;;;5.82;;
25936;SDS011;13733;51.178;4.450;2023-06-10T10:42:13;6.80;;;5.60;;
25936;SDS011;13733;51.178;4.450;2023-06-10T10:44:39;7.10;;;5.82;;
25936;SDS011;13733;51.178;4.450;2023-06-10T10:47:09;8.10;;;5.57;;
25936;SDS011;13733;51.178;4.450;2023-06-10T10:52:02;6.82;;;4.97;;
25936;SDS011;13733;51.178;4.450;2023-06-10T10:54:32;10.90;;;5.65;;
25936;SDS011;13733;51.178;4.450;2023-06-10T10:59:45;11.98;;;5.90;;
25936;SDS011;13733;51.178;4.450;2023-06-10T11:02:17;7.05;;;6.00;;
25936;SDS011;13733;51.178;4.450;2023-06-10T11:04:46;9.10;;;5.97;;
25936;SDS011;13733;51.178;4.450;2023-06-10T11:07:13;12.70;;;5.70;;
25936;SDS011;13733;51.178;4.450;2023-06-10T11:10:01;13.35;;;6.55;;
25936;SDS011;13733;51.178;4.450;2023-06-10T11:15:22;9.40;;;6.18;;
25936;SDS011;13733;51.178;4.450;2023-06-10T11:18:08;7.28;;;5.50;;
25936;SDS011;13733;51.178;4.450;2023-06-10T11:28:37;44.42;;;7.40;;
25936;SDS011;13733;51.178;4.450;2023-06-10T11:31:04;14.70;;;6.50;;
25936;SDS011;13733;51.178;4.450;2023-06-10T11:33:30;11.57;;;6.07;;
25936;SDS011;13733;51.178;4.450;2023-06-10T11:35:56;11.52;;;6.03;;
25936;SDS011;13733;51.178;4.450;2023-06-10T11:38:23;9.60;;;5.47;;
25936;SDS011;13733;51.178;4.450;2023-06-10T11:40:50;12.77;;;4.82;;
25936;SDS011;13733;51.178;4.450;2023-06-10T11:43:16;14.93;;;5.68;;
25936;SDS011;13733;51.178;4.450;2023-06-10T11:45:43;6.85;;;6.00;;
25936;SDS011;13733;51.178;4.450;2023-06-10T11:48:09;12.15;;;5.43;;
25936;SDS011;13733;51.178;4.450;2023-06-10T11:50:35;7.07;;;5.55;;
25936;SDS011;13733;51.178;4.450;2023-06-10T11:53:02;11.25;;;5.90;;
25936;SDS011;13733;51.178;4.450;2023-06-10T11:58:20;7.00;;;6.20;;
25936;SDS011;13733;51.178;4.450;2023-06-10T12:00:48;12.13;;;6.03;;
25936;SDS011;13733;51.178;4.450;2023-06-10T12:03:14;10.90;;;6.28;;
25936;SDS011;13733;51.178;4.450;2023-06-10T12:05:54;7.10;;;5.63;;
25936;SDS011;13733;51.178;4.450;2023-06-10T12:08:23;12.73;;;6.55;;
25936;SDS011;13733;51.178;4.450;2023-06-10T12:10:49;9.43;;;5.88;;
25936;SDS011;13733;51.178;4.450;2023-06-10T12:13:16;10.05;;;6.00;;
25936;SDS011;13733;51.178;4.450;2023-06-10T12:15:44;15.00;;;5.70;;
25936;SDS011;13733;51.178;4.450;2023-06-10T12:18:20;11.35;;;5.88;;
25936;SDS011;13733;51.178;4.450;2023-06-10T12:20:48;7.43;;;5.75;;
25936;SDS011;13733;51.178;4.450;2023-06-10T12:23:15;8.57;;;5.93;;
25936;SDS011;13733;51.178;4.450;2023-06-10T12:25:51;7.53;;;5.68;;
25936;SDS011;13733;51.178;4.450;2023-06-10T12:28:22;8.38;;;5.45;;
25936;SDS011;13733;51.178;4.450;2023-06-10T12:30:48;8.63;;;5.78;;
25936;SDS011;13733;51.178;4.450;2023-06-10T12:33:18;11.60;;;6.13;;
25936;SDS011;13733;51.178;4.450;2023-06-10T12:35:52;10.38;;;5.40;;
25936;SDS011;13733;51.178;4.450;2023-06-10T12:38:22;7.85;;;5.57;;
25936;SDS011;13733;51.178;4.450;2023-06-10T12:40:49;9.93;;;5.38;;
25936;SDS011;13733;51.178;4.450;2023-06-10T12:43:22;10.55;;;6.00;;
25936;SDS011;13733;51.178;4.450;2023-06-10T12:45:48;13.57;;;6.18;;
25936;SDS011;13733;51.178;4.450;2023-06-10T12:48:19;13.90;;;6.38;;
25936;SDS011;13733;51.178;4.450;2023-06-10T12:50:52;11.55;;;6.03;;
25936;SDS011;13733;51.178;4.450;2023-06-10T12:53:23;13.65;;;6.05;;
25936;SDS011;13733;51.178;4.450;2023-06-10T12:55:50;10.48;;;6.50;;
25936;SDS011;13733;51.178;4.450;2023-06-10T12:58:16;8.55;;;5.85;;
25936;SDS011;13733;51.178;4.450;2023-06-10T13:00:42;9.38;;;5.80;;
25936;SDS011;13733;51.178;4.450;2023-06-10T13:03:08;12.20;;;5.57;;
25936;SDS011;13733;51.178;4.450;2023-06-10T13:05:35;8.00;;;5.95;;
25936;SDS011;13733;51.178;4.450;2023-06-10T13:08:07;7.55;;;5.65;;
25936;SDS011;13733;51.178;4.450;2023-06-10T13:10:35;12.68;;;5.60;;
25936;SDS011;13733;51.178;4.450;2023-06-10T13:13:03;30.92;;;6.47;;
25936;SDS011;13733;51.178;4.450;2023-06-10T13:15:36;15.32;;;5.50;;
25936;SDS011;13733;51.178;4.450;2023-06-10T13:18:03;11.77;;;5.53;;
25936;SDS011;13733;51.178;4.450;2023-06-10T13:20:29;6.60;;;5.55;;
25936;SDS011;13733;51.178;4.450;2023-06-10T13:22:55;8.73;;;5.53;;
25936;SDS011;13733;51.178;4.450;2023-06-10T13:25:20;10.73;;;6.00;;
25936;SDS011;13733;51.178;4.450;2023-06-10T13:27:46;6.47;;;5.57;;
25936;SDS011;13733;51.178;4.450;2023-06-10T13:30:12;11.57;;;5.35;;
25936;SDS011;13733;51.178;4.450;2023-06-10T13:32:38;9.38;;;5.55;;
25936;SDS011;13733;51.178;4.450;2023-06-10T13:35:04;7.00;;;5.70;;
25936;SDS011;13733;51.178;4.450;2023-06-10T13:37:30;9.18;;;5.97;;
25936;SDS011;13733;51.178;4.450;2023-06-10T13:39:57;7.07;;;5.55;;
25936;SDS011;13733;51.178;4.450;2023-06-10T13:42:23;10.15;;;6.05;;
25936;SDS011;13733;51.178;4.450;2023-06-10T13:44:51;11.33;;;5.87;;
25936;SDS011;13733;51.178;4.450;2023-06-10T13:47:18;11.52;;;5.55;;
25936;SDS011;13733;51.178;4.450;2023-06-10T13:49:44;10.80;;;5.57;;
25936;SDS011;13733;51.178;4.450;2023-06-10T13:52:10;8.70;;;5.28;;
25936;SDS011;13733;51.178;4.450;2023-06-10T13:54:36;11.43;;;5.53;;
25936;SDS011;13733;51.178;4.450;2023-06-10T13:57:02;10.13;;;5.40;;
25936;SDS011;13733;51.178;4.450;2023-06-10T13:59:28;8.38;;;5.22;;
25936;SDS011;13733;51.178;4.450;2023-06-10T14:01:54;14.07;;;5.88;;
25936;SDS011;13733;51.178;4.450;2023-06-10T14:04:21;8.15;;;5.13;;
25936;SDS011;13733;51.178;4.450;2023-06-10T14:06:48;7.80;;;5.70;;
25936;SDS011;13733;51.178;4.450;2023-06-10T14:09:14;9.98;;;5.60;;
25936;SDS011;13733;51.178;4.450;2023-06-10T14:11:41;7.70;;;5.70;;
25936;SDS011;13733;51.178;4.450;2023-06-10T14:14:07;5.97;;;5.30;;
25936;SDS011;13733;51.178;4.450;2023-06-10T14:16:33;9.65;;;5.55;;
25936;SDS011;13733;51.178;4.450;2023-06-10T14:18:58;9.20;;;5.43;;
25936;SDS011;13733;51.178;4.450;2023-06-10T14:21:25;5.68;;;5.10;;
25936;SDS011;13733;51.178;4.450;2023-06-10T14:23:51;7.57;;;5.30;;
25936;SDS011;13733;51.178;4.450;2023-06-10T14:26:18;9.55;;;5.70;;
25936;SDS011;13733;51.178;4.450;2023-06-10T14:28:46;6.70;;;5.47;;
25936;SDS011;13733;51.178;4.450;2023-06-10T14:33:41;8.68;;;5.53;;
25936;SDS011;13733;51.178;4.450;2023-06-10T14:36:08;6.57;;;5.55;;
25936;SDS011;13733;51.178;4.450;2023-06-10T14:38:35;10.80;;;5.43;;
25936;SDS011;13733;51.178;4.450;2023-06-10T14:41:01;6.90;;;5.35;;
25936;SDS011;13733;51.178;4.450;2023-06-10T14:43:27;7.80;;;5.22;;
25936;SDS011;13733;51.178;4.450;2023-06-10T14:45:53;9.23;;;5.55;;
25936;SDS011;13733;51.178;4.450;2023-06-10T14:48:21;7.03;;;5.47;;
25936;SDS011;13733;51.178;4.450;2023-06-10T14:50:46;8.57;;;6.03;;
25936;SDS011;13733;51.178;4.450;2023-06-10T14:53:16;5.88;;;5.28;;
25936;SDS011;13733;51.178;4.450;2023-06-10T14:55:43;7.65;;;5.32;;
25936;SDS011;13733;51.178;4.450;2023-06-10T14:58:08;14.48;;;5.40;;
25936;SDS011;13733;51.178;4.450;2023-06-10T15:00:34;10.13;;;5.30;;
25936;SDS011;13733;51.178;4.450;2023-06-10T15:03:00;10.68;;;5.60;;
25936;SDS011;13733;51.178;4.450;2023-06-10T15:05:26;7.35;;;5.10;;
25936;SDS011;13733;51.178;4.450;2023-06-10T15:07:51;11.77;;;5.60;;
25936;SDS011;13733;51.178;4.450;2023-06-10T15:10:17;6.40;;;5.30;;